Time;durP1;ratioP1;P1;durP2;ratioP2;P2;SDS_P1;SDS_P2;PMS_P1;PMS_P2;Temp;Humidity;BMP_temperature;BMP_pressure;BME280_temperature;BME280_humidity;BME280_pressure;Samples;Min_cycle;Max_cycle;Signal;HPM_P1;HPM_P2
2020/12/30 05:50:28;;;;;;;2.20;1.25;;;;;;;;;;5110104;27;20399;-82
2020/12/30 05:55:11;;;;;;;2.88;1.30;;;;;;;;;;5106677;27;20339;-80
2020/12/30 05:57:38;;;;;;;2.80;1.23;;;;;;;;;;5098286;28;20053;-80
2020/12/30 06:00:10;;;;;;;3.58;1.38;;;;;;;;;;5099172;28;20032;-82
2020/12/30 06:02:40;;;;;;;3.50;1.23;;;;;;;;;;5102263;28;20533;-82
2020/12/30 06:05:12;;;;;;;2.65;1.17;;;;;;;;;;5096662;28;20426;-82
2020/12/30 06:07:45;;;;;;;4.75;1.00;;;;;;;;;;5096944;28;20089;-82
2020/12/30 06:10:12;;;;;;;2.22;0.90;;;;;;;;;;5094934;28;20017;-82
2020/12/30 06:12:39;;;;;;;6.55;1.13;;;;;;;;;;5095848;28;20033;-82
2020/12/30 06:15:06;;;;;;;3.70;1.00;;;;;;;;;;5098667;28;20074;-82
2020/12/30 06:17:32;;;;;;;4.38;1.05;;;;;;;;;;5100018;28;20489;-82
2020/12/30 06:19:59;;;;;;;4.13;1.40;;;;;;;;;;5099703;28;20024;-82
2020/12/30 06:22:25;;;;;;;2.65;1.15;;;;;;;;;;5099006;28;20042;-82
2020/12/30 06:24:52;;;;;;;4.00;1.50;;;;;;;;;;5096253;28;20024;-82
2020/12/30 06:27:19;;;;;;;3.65;1.40;;;;;;;;;;5096295;28;20056;-82
2020/12/30 06:29:45;;;;;;;3.92;1.50;;;;;;;;;;5099895;28;20028;-82
2020/12/30 06:32:11;;;;;;;4.40;1.20;;;;;;;;;;5105361;28;20055;-82
2020/12/30 06:34:37;;;;;;;3.75;1.77;;;;;;;;;;5102677;28;20107;-82
2020/12/30 06:37:04;;;;;;;3.17;1.30;;;;;;;;;;5106829;28;20140;-82
2020/12/30 06:39:29;;;;;;;2.78;1.20;;;;;;;;;;5093141;28;20026;-82
2020/12/30 06:42:00;;;;;;;4.70;1.30;;;;;;;;;;5096730;28;20025;-82
2020/12/30 06:44:43;;;;;;;5.05;1.75;;;;;;;;;;5085869;28;20047;-82
2020/12/30 06:47:09;;;;;;;3.67;1.50;;;;;;;;;;5099337;28;20032;-82
2020/12/30 06:49:36;;;;;;;4.55;1.50;;;;;;;;;;5099453;28;20115;-82
2020/12/30 06:52:02;;;;;;;5.35;1.83;;;;;;;;;;5098753;28;20024;-82
2020/12/30 06:54:45;;;;;;;3.97;1.30;;;;;;;;;;5100102;28;20110;-82
2020/12/30 06:57:30;;;;;;;6.90;1.73;;;;;;;;;;5094684;28;20071;-82
2020/12/30 06:59:56;;;;;;;5.00;1.95;;;;;;;;;;5090355;28;20080;-82
2020/12/30 07:02:22;;;;;;;4.60;1.50;;;;;;;;;;5099361;28;20072;-81
2020/12/30 07:07:20;;;;;;;4.53;1.50;;;;;;;;;;5098070;27;20360;-84
2020/12/30 07:09:46;;;;;;;4.72;1.42;;;;;;;;;;5098654;28;20554;-84
2020/12/30 07:12:12;;;;;;;6.07;1.50;;;;;;;;;;5106725;28;20017;-84
2020/12/30 07:17:01;;;;;;;6.55;1.80;;;;;;;;;;5123270;27;20389;-83
2020/12/30 07:19:28;;;;;;;8.27;2.10;;;;;;;;;;5117618;28;20380;-83
2020/12/30 07:21:59;;;;;;;3.75;1.58;;;;;;;;;;5097803;28;20374;-84
2020/12/30 07:24:26;;;;;;;5.28;1.45;;;;;;;;;;5095600;28;20031;-84
2020/12/30 07:26:54;;;;;;;10.40;2.42;;;;;;;;;;5084237;28;20130;-84
2020/12/30 07:29:20;;;;;;;5.25;2.15;;;;;;;;;;5094522;28;20032;-83
2020/12/30 07:31:50;;;;;;;5.10;1.80;;;;;;;;;;5082705;28;20048;-84
2020/12/30 07:34:21;;;;;;;4.90;1.70;;;;;;;;;;5100055;28;20032;-83
2020/12/30 07:36:47;;;;;;;4.07;1.70;;;;;;;;;;5099412;28;20431;-83
2020/12/30 07:39:14;;;;;;;5.18;2.40;;;;;;;;;;5107703;28;20068;-84
2020/12/30 07:41:43;;;;;;;6.05;1.80;;;;;;;;;;5090436;28;20154;-83
2020/12/30 07:44:09;;;;;;;5.50;1.85;;;;;;;;;;5088310;28;20035;-83
2020/12/30 07:46:35;;;;;;;6.30;1.77;;;;;;;;;;5085276;28;20032;-83
2020/12/30 07:49:08;;;;;;;6.38;2.17;;;;;;;;;;5089814;28;20028;-83
2020/12/30 07:51:34;;;;;;;4.93;2.05;;;;;;;;;;5090370;28;20024;-83
2020/12/30 07:54:00;;;;;;;6.35;1.40;;;;;;;;;;5093134;28;20058;-82
2020/12/30 07:56:26;;;;;;;5.65;1.92;;;;;;;;;;5093853;28;20028;-83
2020/12/30 07:58:52;;;;;;;3.80;1.65;;;;;;;;;;5092930;28;20025;-83
2020/12/30 08:01:19;;;;;;;6.43;1.85;;;;;;;;;;5091124;28;20078;-83
2020/12/30 08:03:45;;;;;;;3.40;1.45;;;;;;;;;;5084577;28;20028;-82
2020/12/30 08:06:11;;;;;;;8.82;4.05;;;;;;;;;;5087277;28;20024;-81
2020/12/30 08:08:43;;;;;;;5.43;2.70;;;;;;;;;;5092816;28;20028;-81
2020/12/30 08:11:09;;;;;;;4.18;2.17;;;;;;;;;;5093014;28;20032;-81
2020/12/30 08:13:38;;;;;;;4.82;1.85;;;;;;;;;;5092871;28;20436;-81
2020/12/30 08:18:22;;;;;;;5.80;2.25;;;;;;;;;;5100158;27;20410;-81
2020/12/30 08:20:48;;;;;;;6.35;2.50;;;;;;;;;;5102775;28;20032;-81
2020/12/30 08:23:18;;;;;;;7.57;3.08;;;;;;;;;;5091912;28;20028;-83
2020/12/30 08:25:47;;;;;;;7.68;3.25;;;;;;;;;;5091733;28;20081;-84
2020/12/30 08:28:13;;;;;;;15.55;5.05;;;;;;;;;;5095469;28;20042;-83
2020/12/30 08:30:40;;;;;;;9.38;4.68;;;;;;;;;;5087302;28;20103;-84
2020/12/30 08:33:10;;;;;;;8.85;4.20;;;;;;;;;;5075798;28;20024;-84
2020/12/30 08:35:41;;;;;;;9.32;3.40;;;;;;;;;;5098881;28;20024;-84
2020/12/30 08:38:17;;;;;;;8.85;2.97;;;;;;;;;;5114388;28;20028;-84
2020/12/30 08:40:46;;;;;;;11.25;4.10;;;;;;;;;;5114154;28;20048;-84
2020/12/30 08:43:20;;;;;;;11.55;4.82;;;;;;;;;;5095552;28;20027;-84
2020/12/30 08:45:48;;;;;;;12.95;6.60;;;;;;;;;;5114696;28;20079;-83
2020/12/30 08:48:16;;;;;;;10.40;6.22;;;;;;;;;;5095936;28;20032;-84
2020/12/30 08:50:42;;;;;;;7.47;4.60;;;;;;;;;;5093672;28;20035;-84
2020/12/30 08:53:08;;;;;;;10.90;4.38;;;;;;;;;;5093527;28;20107;-84
2020/12/30 08:55:35;;;;;;;12.77;6.45;;;;;;;;;;5093814;28;20032;-83
2020/12/30 08:58:01;;;;;;;17.38;10.55;;;;;;;;;;5109997;28;20035;-83
2020/12/30 09:00:33;;;;;;;13.27;8.13;;;;;;;;;;5093635;28;20027;-84
2020/12/30 09:03:10;;;;;;;20.50;8.20;;;;;;;;;;5110958;28;20020;-83
2020/12/30 09:05:36;;;;;;;16.55;8.23;;;;;;;;;;5099862;28;20021;-83
2020/12/30 09:08:12;;;;;;;13.80;5.38;;;;;;;;;;5093658;28;20546;-84
2020/12/30 09:10:38;;;;;;;14.93;7.40;;;;;;;;;;5092566;28;20029;-84
2020/12/30 09:13:11;;;;;;;8.73;4.63;;;;;;;;;;5100795;28;20024;-83
2020/12/30 09:15:37;;;;;;;6.65;2.92;;;;;;;;;;5091492;28;20515;-83
2020/12/30 09:18:03;;;;;;;7.00;2.10;;;;;;;;;;5103520;28;20066;-83
2020/12/30 09:20:33;;;;;;;6.28;2.35;;;;;;;;;;5083205;28;20016;-83
2020/12/30 09:23:00;;;;;;;8.55;2.50;;;;;;;;;;5093434;28;20500;-83
2020/12/30 09:25:27;;;;;;;6.25;2.78;;;;;;;;;;5093607;28;20116;-83
2020/12/30 09:27:53;;;;;;;6.65;2.10;;;;;;;;;;5076987;28;20103;-83
2020/12/30 09:30:20;;;;;;;7.45;2.47;;;;;;;;;;5068553;28;20024;-83
2020/12/30 09:32:46;;;;;;;10.30;2.55;;;;;;;;;;5089293;28;20091;-83
2020/12/30 09:35:13;;;;;;;7.60;2.28;;;;;;;;;;5056496;28;20036;-84
2020/12/30 09:37:39;;;;;;;3.88;2.05;;;;;;;;;;5066611;28;20024;-84
2020/12/30 09:40:08;;;;;;;4.93;2.03;;;;;;;;;;5077391;28;20028;-84
2020/12/30 09:42:34;;;;;;;5.10;2.30;;;;;;;;;;5074363;28;20024;-85
2020/12/30 09:45:01;;;;;;;3.72;1.83;;;;;;;;;;5073106;28;20058;-85
2020/12/30 09:47:27;;;;;;;8.65;2.53;;;;;;;;;;5086210;28;20012;-84
2020/12/30 09:49:53;;;;;;;11.15;3.30;;;;;;;;;;5076331;28;20021;-85
2020/12/30 09:52:19;;;;;;;12.20;5.18;;;;;;;;;;5070105;28;20024;-84
2020/12/30 09:54:45;;;;;;;14.00;4.55;;;;;;;;;;5059451;28;20032;-85
2020/12/30 09:57:11;;;;;;;6.55;2.90;;;;;;;;;;5060175;28;20135;-85
2020/12/30 09:59:36;;;;;;;7.30;2.63;;;;;;;;;;5083080;28;20024;-85
2020/12/30 10:02:02;;;;;;;6.53;2.55;;;;;;;;;;5045815;28;20021;-85
2020/12/30 10:04:28;;;;;;;13.68;2.75;;;;;;;;;;5073130;28;20069;-85
2020/12/30 10:06:54;;;;;;;8.07;2.80;;;;;;;;;;5054363;28;20056;-85
2020/12/30 10:09:20;;;;;;;6.90;2.50;;;;;;;;;;5071160;28;20083;-84
2020/12/30 10:11:46;;;;;;;8.10;4.53;;;;;;;;;;5052274;28;20039;-84
2020/12/30 10:14:12;;;;;;;7.50;3.40;;;;;;;;;;5055045;28;20040;-85
2020/12/30 10:16:38;;;;;;;5.88;3.30;;;;;;;;;;5061626;28;20107;-85
2020/12/30 10:21:27;;;;;;;10.90;4.25;;;;;;;;;;5115397;27;20334;-83
2020/12/30 10:23:53;;;;;;;7.18;3.80;;;;;;;;;;5110062;28;20027;-84
2020/12/30 10:26:19;;;;;;;10.00;4.28;;;;;;;;;;5103456;28;20035;-83
2020/12/30 10:28:45;;;;;;;6.50;3.90;;;;;;;;;;5098908;28;20140;-84
2020/12/30 10:31:14;;;;;;;9.45;3.97;;;;;;;;;;5097954;28;20044;-83
2020/12/30 10:33:40;;;;;;;9.13;4.10;;;;;;;;;;5100429;28;20020;-83
2020/12/30 10:36:06;;;;;;;6.13;3.15;;;;;;;;;;5098703;28;20020;-82
2020/12/30 10:38:32;;;;;;;9.05;4.47;;;;;;;;;;5102091;28;20051;-83
2020/12/30 10:40:58;;;;;;;9.68;4.50;;;;;;;;;;5094573;28;20056;-83
2020/12/30 10:43:25;;;;;;;10.43;4.90;;;;;;;;;;5098658;28;20034;-83
2020/12/30 10:45:51;;;;;;;7.93;4.15;;;;;;;;;;5096543;28;20031;-83
2020/12/30 10:48:16;;;;;;;14.07;5.00;;;;;;;;;;5098082;28;20025;-83
2020/12/30 10:50:43;;;;;;;21.88;9.90;;;;;;;;;;5101297;28;20102;-83
2020/12/30 10:53:08;;;;;;;15.23;7.50;;;;;;;;;;5098247;28;20077;-83
2020/12/30 10:55:34;;;;;;;9.70;4.30;;;;;;;;;;5093313;28;20079;-83
2020/12/30 10:58:00;;;;;;;9.20;4.55;;;;;;;;;;5086280;28;20064;-84
2020/12/30 11:00:26;;;;;;;8.20;4.15;;;;;;;;;;5086821;28;20063;-83
2020/12/30 11:02:53;;;;;;;9.75;4.63;;;;;;;;;;5080803;28;20044;-83
2020/12/30 11:05:19;;;;;;;7.00;4.10;;;;;;;;;;5090825;28;20028;-82
2020/12/30 11:07:45;;;;;;;8.13;3.88;;;;;;;;;;5088936;28;20380;-83
2020/12/30 11:10:11;;;;;;;12.38;5.60;;;;;;;;;;5088464;28;20523;-82
2020/12/30 11:12:37;;;;;;;70.43;26.90;;;;;;;;;;5085887;28;20043;-83
2020/12/30 11:15:04;;;;;;;93.47;37.35;;;;;;;;;;5090507;28;20431;-83
2020/12/30 11:17:30;;;;;;;66.57;29.80;;;;;;;;;;5095880;28;20028;-83
2020/12/30 11:22:14;;;;;;;37.20;16.90;;;;;;;;;;5094747;28;20354;-84
2020/12/30 11:24:40;;;;;;;9.80;5.18;;;;;;;;;;5080857;28;20032;-83
2020/12/30 11:27:06;;;;;;;9.10;4.63;;;;;;;;;;5081416;28;20552;-84
2020/12/30 11:29:32;;;;;;;8.55;4.00;;;;;;;;;;5065371;28;20089;-84
2020/12/30 11:31:58;;;;;;;9.43;3.45;;;;;;;;;;5058273;28;20041;-84
2020/12/30 11:34:24;;;;;;;6.53;3.45;;;;;;;;;;5067178;28;20032;-84
2020/12/30 11:36:52;;;;;;;5.43;2.75;;;;;;;;;;5063368;28;20518;-84
2020/12/30 11:39:18;;;;;;;8.02;3.30;;;;;;;;;;5059686;28;20099;-84
2020/12/30 11:41:48;;;;;;;11.63;4.30;;;;;;;;;;5059247;28;20031;-84
2020/12/30 11:47:18;;;;;;;9.35;4.07;;;;;;;;;;5076178;28;20036;-84
2020/12/30 11:49:44;;;;;;;9.68;3.55;;;;;;;;;;5061656;28;20493;-84
2020/12/30 11:52:11;;;;;;;8.60;3.92;;;;;;;;;;5078871;28;20043;-85
2020/12/30 11:54:37;;;;;;;21.27;10.07;;;;;;;;;;5064979;28;20035;-84
2020/12/30 11:57:03;;;;;;;14.05;7.53;;;;;;;;;;5077011;28;20032;-85
2020/12/30 11:59:29;;;;;;;9.35;4.43;;;;;;;;;;5080267;28;20028;-85
2020/12/30 12:01:55;;;;;;;5.80;3.38;;;;;;;;;;5070406;28;20029;-85
2020/12/30 12:04:21;;;;;;;6.60;3.30;;;;;;;;;;5059585;28;20032;-84
2020/12/30 12:06:47;;;;;;;6.50;3.30;;;;;;;;;;5078604;28;20040;-84
2020/12/30 12:09:13;;;;;;;5.30;3.05;;;;;;;;;;5084227;28;20056;-84
2020/12/30 12:11:39;;;;;;;10.35;3.55;;;;;;;;;;5071443;28;20024;-84
2020/12/30 12:14:05;;;;;;;5.28;2.88;;;;;;;;;;5056789;28;20032;-84
2020/12/30 12:16:31;;;;;;;5.75;4.47;;;;;;;;;;5060342;28;20020;-84
2020/12/30 12:18:57;;;;;;;5.30;3.38;;;;;;;;;;5075511;28;20111;-83
2020/12/30 12:21:23;;;;;;;7.20;3.33;;;;;;;;;;5061689;28;20028;-85
2020/12/30 12:23:49;;;;;;;8.15;3.55;;;;;;;;;;5062004;28;20024;-83
2020/12/30 12:26:21;;;;;;;4.30;2.60;;;;;;;;;;5076793;28;20409;-85
2020/12/30 12:28:46;;;;;;;8.25;3.40;;;;;;;;;;5073901;28;20032;-84
2020/12/30 12:31:15;;;;;;;5.85;3.13;;;;;;;;;;5074350;28;20499;-86
2020/12/30 12:33:41;;;;;;;5.03;2.80;;;;;;;;;;5063562;28;20443;-84
2020/12/30 12:36:14;;;;;;;5.75;3.08;;;;;;;;;;5067113;28;20033;-84
2020/12/30 12:38:40;;;;;;;5.22;2.63;;;;;;;;;;5045708;28;20477;-84
2020/12/30 12:41:06;;;;;;;4.97;2.33;;;;;;;;;;5062227;28;20029;-82
2020/12/30 12:43:32;;;;;;;4.78;2.20;;;;;;;;;;5042437;28;20079;-83
2020/12/30 12:45:58;;;;;;;8.30;3.22;;;;;;;;;;5050675;28;20013;-83
2020/12/30 12:48:24;;;;;;;5.15;2.33;;;;;;;;;;5062547;28;20466;-83
2020/12/30 12:50:50;;;;;;;4.57;2.45;;;;;;;;;;5058871;28;20032;-83
2020/12/30 12:53:17;;;;;;;4.85;2.50;;;;;;;;;;5065727;28;20096;-79
2020/12/30 12:55:43;;;;;;;7.85;2.72;;;;;;;;;;5067051;28;20052;-84
2020/12/30 12:58:09;;;;;;;5.45;2.80;;;;;;;;;;5044303;28;20049;-83
2020/12/30 13:00:35;;;;;;;3.40;2.28;;;;;;;;;;5064357;28;20024;-82
2020/12/30 13:03:01;;;;;;;8.18;2.30;;;;;;;;;;5076679;28;20033;-81
2020/12/30 13:05:27;;;;;;;7.90;2.85;;;;;;;;;;5090078;28;20064;-82
2020/12/30 13:07:52;;;;;;;9.02;5.07;;;;;;;;;;5082074;28;20036;-82
2020/12/30 13:10:18;;;;;;;6.15;3.38;;;;;;;;;;5060840;28;20111;-82
2020/12/30 13:12:44;;;;;;;10.25;4.80;;;;;;;;;;5050157;28;20024;-82
2020/12/30 13:15:10;;;;;;;7.95;5.22;;;;;;;;;;5059766;28;20025;-83
2020/12/30 13:17:36;;;;;;;5.53;3.17;;;;;;;;;;5071133;28;20146;-83
2020/12/30 13:20:03;;;;;;;7.70;2.42;;;;;;;;;;5065729;28;20035;-83
2020/12/30 13:22:29;;;;;;;6.40;3.20;;;;;;;;;;5075269;28;20036;-82
2020/12/30 13:24:56;;;;;;;4.63;2.70;;;;;;;;;;5071284;28;20080;-82
2020/12/30 13:27:22;;;;;;;9.25;3.08;;;;;;;;;;5063920;28;20015;-83
2020/12/30 13:29:48;;;;;;;24.60;12.05;;;;;;;;;;5048708;28;20025;-83
2020/12/30 13:32:14;;;;;;;9.52;5.20;;;;;;;;;;5046239;28;20039;-83
2020/12/30 13:34:40;;;;;;;6.47;3.33;;;;;;;;;;5064392;28;20028;-83
2020/12/30 13:37:06;;;;;;;5.63;2.88;;;;;;;;;;5063732;28;20033;-83
2020/12/30 13:39:32;;;;;;;5.82;2.90;;;;;;;;;;5065284;28;20034;-83
2020/12/30 13:41:58;;;;;;;3.95;2.10;;;;;;;;;;5063416;28;20064;-83
2020/12/30 13:44:24;;;;;;;5.22;3.03;;;;;;;;;;5035052;28;20028;-83
2020/12/30 13:46:50;;;;;;;6.63;3.22;;;;;;;;;;5062403;28;20024;-84
2020/12/30 13:49:16;;;;;;;9.15;2.72;;;;;;;;;;5066614;28;20021;-84
2020/12/30 13:51:43;;;;;;;4.47;2.25;;;;;;;;;;5058797;28;20025;-84
2020/12/30 13:54:09;;;;;;;5.00;2.10;;;;;;;;;;5043258;28;20032;-84
2020/12/30 13:56:35;;;;;;;7.88;2.40;;;;;;;;;;5060088;28;20037;-83
2020/12/30 13:59:01;;;;;;;3.90;2.05;;;;;;;;;;5061480;28;20043;-83
2020/12/30 14:01:27;;;;;;;4.25;2.25;;;;;;;;;;5060700;28;20037;-84
2020/12/30 14:03:54;;;;;;;5.07;2.10;;;;;;;;;;5028933;28;20029;-84
2020/12/30 14:06:23;;;;;;;5.45;2.50;;;;;;;;;;5041580;28;20022;-83
2020/12/30 14:08:49;;;;;;;4.57;2.17;;;;;;;;;;5040678;28;20483;-84
2020/12/30 14:11:16;;;;;;;4.85;2.25;;;;;;;;;;5041354;28;20486;-84
2020/12/30 14:13:42;;;;;;;6.90;2.20;;;;;;;;;;5022934;28;20025;-83
2020/12/30 14:16:08;;;;;;;5.20;2.25;;;;;;;;;;5040194;28;20026;-84
2020/12/30 14:18:34;;;;;;;4.85;2.75;;;;;;;;;;5022702;28;20037;-84
2020/12/30 14:21:00;;;;;;;4.68;2.38;;;;;;;;;;5040025;28;20025;-84
2020/12/30 14:23:26;;;;;;;5.47;2.15;;;;;;;;;;5027946;28;20035;-84
2020/12/30 14:25:52;;;;;;;6.30;2.90;;;;;;;;;;5058776;28;20025;-83
2020/12/30 14:28:18;;;;;;;4.43;1.90;;;;;;;;;;5059132;28;20247;-83
2020/12/30 14:30:44;;;;;;;5.18;2.90;;;;;;;;;;5062769;28;20103;-84
2020/12/30 14:33:10;;;;;;;7.35;2.83;;;;;;;;;;5062825;28;20518;-83
2020/12/30 14:35:36;;;;;;;5.10;2.40;;;;;;;;;;5058422;28;20046;-83
2020/12/30 14:38:03;;;;;;;8.85;4.70;;;;;;;;;;5042399;28;20378;-83
2020/12/30 14:40:29;;;;;;;8.38;4.40;;;;;;;;;;5039431;28;21034;-83
2020/12/30 14:42:55;;;;;;;12.77;5.53;;;;;;;;;;5059847;28;20021;-83
2020/12/30 14:45:21;;;;;;;8.88;5.40;;;;;;;;;;5062509;28;20020;-83
2020/12/30 14:47:47;;;;;;;8.00;4.28;;;;;;;;;;5060944;28;20350;-83
2020/12/30 14:50:13;;;;;;;10.32;6.03;;;;;;;;;;5063623;28;20036;-83
2020/12/30 14:52:39;;;;;;;8.07;5.80;;;;;;;;;;5066847;28;20031;-83
2020/12/30 14:55:06;;;;;;;7.13;3.63;;;;;;;;;;5041501;28;20564;-84
2020/12/30 14:57:32;;;;;;;6.30;3.17;;;;;;;;;;5050687;28;20119;-84
2020/12/30 15:00:01;;;;;;;8.00;2.70;;;;;;;;;;5055269;28;20028;-84
2020/12/30 15:02:27;;;;;;;4.68;2.40;;;;;;;;;;5056355;28;20536;-84
2020/12/30 15:04:53;;;;;;;5.20;2.05;;;;;;;;;;5049374;28;20029;-84
2020/12/30 15:07:19;;;;;;;5.72;2.33;;;;;;;;;;5067065;28;20077;-84
2020/12/30 15:09:45;;;;;;;5.13;2.80;;;;;;;;;;5050212;28;20029;-84
2020/12/30 15:12:10;;;;;;;6.53;2.55;;;;;;;;;;5055639;28;20043;-82
2020/12/30 15:14:40;;;;;;;6.20;2.55;;;;;;;;;;5054637;28;20029;-84
2020/12/30 15:17:06;;;;;;;11.23;4.57;;;;;;;;;;5061381;28;20477;-84
2020/12/30 15:19:32;;;;;;;16.27;6.88;;;;;;;;;;5057532;28;20040;-84
2020/12/30 15:21:58;;;;;;;9.63;5.30;;;;;;;;;;5062647;28;20036;-83
2020/12/30 15:24:23;;;;;;;9.05;4.57;;;;;;;;;;5063172;28;20021;-83
2020/12/30 15:26:49;;;;;;;6.07;4.00;;;;;;;;;;5046913;28;20074;-83
2020/12/30 15:29:15;;;;;;;11.90;4.68;;;;;;;;;;5063083;28;20437;-83
2020/12/30 15:31:41;;;;;;;10.15;6.95;;;;;;;;;;5064903;28;20437;-83
2020/12/30 15:34:07;;;;;;;8.02;5.57;;;;;;;;;;5058724;28;20029;-83
2020/12/30 15:36:36;;;;;;;9.07;5.03;;;;;;;;;;5062895;28;20448;-82
2020/12/30 15:39:03;;;;;;;8.90;4.82;;;;;;;;;;5060681;28;20374;-83
2020/12/30 15:41:29;;;;;;;12.75;7.07;;;;;;;;;;5061287;28;20033;-83
2020/12/30 15:43:55;;;;;;;14.73;7.85;;;;;;;;;;5045771;28;20081;-83
2020/12/30 15:46:22;;;;;;;16.75;9.18;;;;;;;;;;5076883;28;20035;-84
2020/12/30 15:48:48;;;;;;;14.32;7.78;;;;;;;;;;5058614;28;20166;-84
2020/12/30 15:51:14;;;;;;;7.70;4.50;;;;;;;;;;5058018;28;20028;-83
2020/12/30 15:53:41;;;;;;;6.82;3.50;;;;;;;;;;5072190;28;20116;-83
2020/12/30 15:56:14;;;;;;;7.80;2.85;;;;;;;;;;5043203;28;20036;-84
2020/12/30 15:58:40;;;;;;;5.50;2.70;;;;;;;;;;5054174;28;20124;-84
2020/12/30 16:01:06;;;;;;;6.07;2.78;;;;;;;;;;5055630;28;20072;-83
2020/12/30 16:03:32;;;;;;;7.88;3.38;;;;;;;;;;5056261;28;20032;-83
2020/12/30 16:05:58;;;;;;;8.43;3.53;;;;;;;;;;5067652;28;20027;-84
2020/12/30 16:08:24;;;;;;;5.15;3.00;;;;;;;;;;5066366;28;20017;-84
2020/12/30 16:10:50;;;;;;;7.00;3.88;;;;;;;;;;5069223;28;20481;-83
2020/12/30 16:13:16;;;;;;;5.25;2.90;;;;;;;;;;5066876;28;20040;-83
2020/12/30 16:15:42;;;;;;;5.15;2.75;;;;;;;;;;5065845;28;20142;-81
2020/12/30 16:18:08;;;;;;;5.20;2.38;;;;;;;;;;5065073;28;20029;-82
2020/12/30 16:20:34;;;;;;;5.55;2.72;;;;;;;;;;5062973;28;20088;-81
2020/12/30 16:23:00;;;;;;;5.43;2.58;;;;;;;;;;5062420;28;20033;-81
2020/12/30 16:25:26;;;;;;;5.97;3.05;;;;;;;;;;5067662;28;20028;-81
2020/12/30 16:27:53;;;;;;;5.78;3.40;;;;;;;;;;5061782;28;20048;-80
2020/12/30 16:30:19;;;;;;;7.95;3.17;;;;;;;;;;5069672;28;20029;-81
2020/12/30 16:35:04;;;;;;;10.85;7.10;;;;;;;;;;5090518;28;20348;-81
2020/12/30 16:37:30;;;;;;;16.20;10.32;;;;;;;;;;5085999;28;20095;-82
2020/12/30 16:39:56;;;;;;;11.07;6.80;;;;;;;;;;5085373;28;20029;-82
2020/12/30 16:42:22;;;;;;;9.68;5.75;;;;;;;;;;5066979;28;20029;-82
2020/12/30 16:44:48;;;;;;;8.57;5.22;;;;;;;;;;5080144;28;20032;-83
2020/12/30 16:47:13;;;;;;;12.60;7.68;;;;;;;;;;5058026;28;20024;-81
2020/12/30 16:49:39;;;;;;;11.43;8.27;;;;;;;;;;5079671;28;20448;-82
2020/12/30 16:52:05;;;;;;;9.80;6.78;;;;;;;;;;5078578;28;20086;-82
2020/12/30 16:54:31;;;;;;;14.13;9.18;;;;;;;;;;5077733;28;20028;-83
2020/12/30 16:56:57;;;;;;;13.57;6.68;;;;;;;;;;5074195;28;20036;-82
2020/12/30 16:59:23;;;;;;;12.70;5.72;;;;;;;;;;5076088;28;20021;-82
2020/12/30 17:01:52;;;;;;;10.27;5.50;;;;;;;;;;5080493;28;20021;-82
2020/12/30 17:04:21;;;;;;;6.00;3.45;;;;;;;;;;5082911;28;20032;-81
2020/12/30 17:06:51;;;;;;;5.20;2.78;;;;;;;;;;5076778;28;20032;-82
2020/12/30 17:09:17;;;;;;;7.72;4.25;;;;;;;;;;5085619;28;20049;-82
2020/12/30 17:11:43;;;;;;;5.57;3.42;;;;;;;;;;5079169;28;20020;-79
2020/12/30 17:14:09;;;;;;;11.70;6.10;;;;;;;;;;5075249;28;20031;-79
2020/12/30 17:16:35;;;;;;;15.82;10.48;;;;;;;;;;5076112;28;20093;-78
2020/12/30 17:19:01;;;;;;;29.38;13.88;;;;;;;;;;5078546;28;20533;-80
2020/12/30 17:21:33;;;;;;;17.52;8.57;;;;;;;;;;5081849;28;20012;-81
2020/12/30 17:24:07;;;;;;;8.48;4.25;;;;;;;;;;5055024;28;20039;-80
2020/12/30 17:26:34;;;;;;;4.43;2.72;;;;;;;;;;5037468;28;20066;-81
2020/12/30 17:29:00;;;;;;;6.07;2.92;;;;;;;;;;5054685;28;20101;-80
2020/12/30 17:31:29;;;;;;;3.65;2.35;;;;;;;;;;5083861;28;20575;-81
2020/12/30 17:33:55;;;;;;;4.35;2.88;;;;;;;;;;5076588;28;20028;-81
2020/12/30 17:36:25;;;;;;;5.40;2.78;;;;;;;;;;5079679;28;20020;-81
2020/12/30 17:38:51;;;;;;;3.88;2.40;;;;;;;;;;5068301;28;20016;-81
2020/12/30 17:41:21;;;;;;;5.25;3.40;;;;;;;;;;5076866;28;20515;-80
2020/12/30 17:43:47;;;;;;;6.47;3.72;;;;;;;;;;5072441;28;20393;-81
2020/12/30 17:46:13;;;;;;;5.50;3.25;;;;;;;;;;5064017;28;20104;-80
2020/12/30 17:48:39;;;;;;;11.05;5.43;;;;;;;;;;5037166;28;20052;-81
2020/12/30 17:51:05;;;;;;;22.13;10.93;;;;;;;;;;5065069;28;20039;-81
2020/12/30 17:53:31;;;;;;;13.43;8.15;;;;;;;;;;5055758;28;20029;-81
2020/12/30 17:55:57;;;;;;;12.02;6.03;;;;;;;;;;5047128;28;20040;-80
2020/12/30 17:58:23;;;;;;;9.63;5.70;;;;;;;;;;5068427;28;20025;-81
2020/12/30 18:00:49;;;;;;;8.20;4.63;;;;;;;;;;5046556;28;20027;-82
2020/12/30 18:03:15;;;;;;;7.70;4.68;;;;;;;;;;5061319;28;20036;-81
2020/12/30 18:05:43;;;;;;;7.07;4.10;;;;;;;;;;5053068;28;20037;-82
2020/12/30 18:08:09;;;;;;;9.50;4.93;;;;;;;;;;5061445;28;20477;-82
2020/12/30 18:10:34;;;;;;;7.18;4.15;;;;;;;;;;5062106;28;20025;-81
2020/12/30 18:13:01;;;;;;;9.10;4.63;;;;;;;;;;5062239;28;20029;-81
2020/12/30 18:15:27;;;;;;;6.65;4.28;;;;;;;;;;5053039;28;20013;-80
2020/12/30 18:17:53;;;;;;;5.63;3.17;;;;;;;;;;5065638;28;20043;-81
2020/12/30 18:20:19;;;;;;;4.32;2.58;;;;;;;;;;5081513;28;20047;-81
2020/12/30 18:22:45;;;;;;;4.60;2.50;;;;;;;;;;5066160;28;20031;-81
2020/12/30 18:25:12;;;;;;;4.88;2.33;;;;;;;;;;5060720;28;20028;-81
2020/12/30 18:27:38;;;;;;;4.25;2.70;;;;;;;;;;5061109;28;20013;-81
2020/12/30 18:30:04;;;;;;;4.38;2.78;;;;;;;;;;5058942;28;20020;-81
2020/12/30 18:32:34;;;;;;;3.38;2.05;;;;;;;;;;5059877;28;20020;-81
2020/12/30 18:35:00;;;;;;;5.05;2.20;;;;;;;;;;5051779;28;20029;-81
2020/12/30 18:37:26;;;;;;;3.83;2.25;;;;;;;;;;5057397;28;20212;-81
2020/12/30 18:39:52;;;;;;;5.15;2.28;;;;;;;;;;5058050;28;20096;-81
2020/12/30 18:42:17;;;;;;;4.07;2.30;;;;;;;;;;5057148;28;20112;-81
2020/12/30 18:44:43;;;;;;;6.03;3.33;;;;;;;;;;5056694;28;20503;-80
2020/12/30 18:47:09;;;;;;;5.32;3.08;;;;;;;;;;5042312;28;20523;-81
2020/12/30 18:49:35;;;;;;;4.90;2.75;;;;;;;;;;5038715;28;20090;-81
2020/12/30 18:52:01;;;;;;;5.82;3.00;;;;;;;;;;5053070;28;20071;-81
2020/12/30 18:54:27;;;;;;;5.88;2.65;;;;;;;;;;5063167;28;20028;-81
2020/12/30 18:56:53;;;;;;;4.47;2.83;;;;;;;;;;5061639;28;20021;-81
2020/12/30 18:59:19;;;;;;;4.47;2.63;;;;;;;;;;5042353;28;20088;-80
2020/12/30 19:01:45;;;;;;;6.00;3.78;;;;;;;;;;5067493;28;20025;-81
2020/12/30 19:04:11;;;;;;;6.32;3.30;;;;;;;;;;5062102;28;20078;-80
2020/12/30 19:06:37;;;;;;;4.38;2.72;;;;;;;;;;5046957;28;20032;-81
2020/12/30 19:09:04;;;;;;;5.30;2.95;;;;;;;;;;5034146;28;20060;-81
2020/12/30 19:11:30;;;;;;;5.55;2.78;;;;;;;;;;5056740;28;20024;-80
2020/12/30 19:13:57;;;;;;;5.38;3.40;;;;;;;;;;5058651;28;20778;-81
2020/12/30 19:16:23;;;;;;;4.32;2.92;;;;;;;;;;5057981;28;20025;-80
2020/12/30 19:18:49;;;;;;;5.35;2.88;;;;;;;;;;5056925;28;20028;-81
2020/12/30 19:21:16;;;;;;;6.45;3.00;;;;;;;;;;5068099;28;20021;-80
2020/12/30 19:23:42;;;;;;;5.30;3.40;;;;;;;;;;5047684;28;20497;-80
2020/12/30 19:26:12;;;;;;;5.13;3.33;;;;;;;;;;5068968;28;20023;-81
2020/12/30 19:28:38;;;;;;;4.90;3.28;;;;;;;;;;5061865;28;20393;-81
2020/12/30 19:31:04;;;;;;;4.70;2.97;;;;;;;;;;5063476;28;20541;-81
2020/12/30 19:33:30;;;;;;;6.85;3.75;;;;;;;;;;5063274;28;20024;-81
2020/12/30 19:35:56;;;;;;;5.82;3.83;;;;;;;;;;5055752;28;20029;-81
2020/12/30 19:38:22;;;;;;;6.43;3.15;;;;;;;;;;5063976;28;20025;-81
2020/12/30 19:40:48;;;;;;;6.45;3.78;;;;;;;;;;5072017;28;20418;-81
2020/12/30 19:43:14;;;;;;;5.32;3.55;;;;;;;;;;5064533;28;20089;-81
2020/12/30 19:45:40;;;;;;;5.80;3.72;;;;;;;;;;5058847;28;20119;-80
2020/12/30 19:48:06;;;;;;;5.60;3.13;;;;;;;;;;5059974;28;20112;-80
2020/12/30 19:50:32;;;;;;;5.97;4.03;;;;;;;;;;5060544;28;20433;-81
2020/12/30 19:52:58;;;;;;;5.22;3.67;;;;;;;;;;5063488;28;20025;-80
2020/12/30 19:55:24;;;;;;;5.63;3.58;;;;;;;;;;5058858;28;20107;-80
2020/12/30 19:57:53;;;;;;;5.65;3.22;;;;;;;;;;5054160;28;20086;-81
2020/12/30 20:00:22;;;;;;;5.53;3.42;;;;;;;;;;5063043;28;20028;-81
2020/12/30 20:02:48;;;;;;;6.43;3.63;;;;;;;;;;5060793;28;20079;-80
2020/12/30 20:05:14;;;;;;;7.18;4.70;;;;;;;;;;5053898;28;20028;-80
2020/12/30 20:07:40;;;;;;;7.00;5.00;;;;;;;;;;5054764;28;20090;-80
2020/12/30 20:10:09;;;;;;;7.50;4.13;;;;;;;;;;5053997;28;20482;-80
2020/12/30 20:12:35;;;;;;;6.90;4.43;;;;;;;;;;5039710;28;20067;-81
2020/12/30 20:15:02;;;;;;;6.15;3.92;;;;;;;;;;5050343;28;20027;-81
2020/12/30 20:17:28;;;;;;;6.50;4.10;;;;;;;;;;5057084;28;20039;-80
2020/12/30 20:22:12;;;;;;;7.65;4.63;;;;;;;;;;5084770;28;20417;-80
2020/12/30 20:24:38;;;;;;;7.95;5.05;;;;;;;;;;5084622;28;20043;-77
2020/12/30 20:27:03;;;;;;;7.30;4.75;;;;;;;;;;5077015;28;20090;-79
2020/12/30 20:29:29;;;;;;;8.15;4.65;;;;;;;;;;5076681;28;20024;-79
2020/12/30 20:31:56;;;;;;;8.45;4.53;;;;;;;;;;5081830;28;20083;-79
2020/12/30 20:34:22;;;;;;;9.20;4.70;;;;;;;;;;5079749;28;20020;-79
2020/12/30 20:36:50;;;;;;;7.13;4.50;;;;;;;;;;5079277;28;20017;-79
2020/12/30 20:39:16;;;;;;;8.23;4.65;;;;;;;;;;5079702;28;20047;-79
2020/12/30 20:41:42;;;;;;;7.30;4.68;;;;;;;;;;5087624;28;20024;-79
2020/12/30 20:44:08;;;;;;;8.48;5.20;;;;;;;;;;5079990;28;20065;-80
2020/12/30 20:46:34;;;;;;;6.55;4.50;;;;;;;;;;5080523;28;20511;-79
2020/12/30 20:49:00;;;;;;;10.73;5.70;;;;;;;;;;5077333;28;20056;-79